sensor_id;sensor_type;location;lat;lon;timestamp;temperature;humidity
23520;DHT22;11936;50.820;4.336;2023-12-14T00:02:21;11.50;99.90
23520;DHT22;11936;50.820;4.336;2023-12-14T00:04:46;11.40;99.90
23520;DHT22;11936;50.820;4.336;2023-12-14T00:07:12;11.30;99.90
23520;DHT22;11936;50.820;4.336;2023-12-14T00:09:40;11.30;99.90
23520;DHT22;11936;50.820;4.336;2023-12-14T00:12:05;11.40;99.90
23520;DHT22;11936;50.820;4.336;2023-12-14T00:14:31;11.40;99.90
23520;DHT22;11936;50.820;4.336;2023-12-14T00:16:57;11.40;99.90
23520;DHT22;11936;50.820;4.336;2023-12-14T00:19:24;11.50;99.90
23520;DHT22;11936;50.820;4.336;2023-12-14T00:21:50;11.50;99.90
23520;DHT22;11936;50.820;4.336;2023-12-14T00:24:15;11.60;99.90
23520;DHT22;11936;50.820;4.336;2023-12-14T00:26:41;11.70;99.90
23520;DHT22;11936;50.820;4.336;2023-12-14T00:29:07;11.60;99.90
23520;DHT22;11936;50.820;4.336;2023-12-14T00:31:32;11.50;99.90
23520;DHT22;11936;50.820;4.336;2023-12-14T00:33:58;11.40;99.90
23520;DHT22;11936;50.820;4.336;2023-12-14T00:36:24;11.40;99.90
23520;DHT22;11936;50.820;4.336;2023-12-14T00:38:53;11.60;99.90
23520;DHT22;11936;50.820;4.336;2023-12-14T00:41:20;11.50;99.90
23520;DHT22;11936;50.820;4.336;2023-12-14T00:43:45;11.40;99.90
23520;DHT22;11936;50.820;4.336;2023-12-14T00:46:11;11.40;99.90
23520;DHT22;11936;50.820;4.336;2023-12-14T00:48:37;11.40;99.90
23520;DHT22;11936;50.820;4.336;2023-12-14T00:51:02;11.40;99.90
23520;DHT22;11936;50.820;4.336;2023-12-14T00:53:28;11.40;99.90
23520;DHT22;11936;50.820;4.336;2023-12-14T00:55:53;11.50;99.90
23520;DHT22;11936;50.820;4.336;2023-12-14T00:58:19;11.50;99.90
23520;DHT22;11936;50.820;4.336;2023-12-14T01:00:46;11.40;99.90
23520;DHT22;11936;50.820;4.336;2023-12-14T01:03:11;11.50;99.90
23520;DHT22;11936;50.820;4.336;2023-12-14T01:05:37;11.40;99.90
23520;DHT22;11936;50.820;4.336;2023-12-14T01:08:03;11.40;99.90
23520;DHT22;11936;50.820;4.336;2023-12-14T01:10:28;11.40;99.90
23520;DHT22;11936;50.820;4.336;2023-12-14T01:12:54;11.40;99.90
23520;DHT22;11936;50.820;4.336;2023-12-14T01:15:19;11.50;99.90
23520;DHT22;11936;50.820;4.336;2023-12-14T01:17:45;11.30;99.90
23520;DHT22;11936;50.820;4.336;2023-12-14T01:20:11;11.20;99.90
23520;DHT22;11936;50.820;4.336;2023-12-14T01:22:36;11.20;99.90
23520;DHT22;11936;50.820;4.336;2023-12-14T01:25:02;11.20;99.90
23520;DHT22;11936;50.820;4.336;2023-12-14T01:27:28;11.20;99.90
23520;DHT22;11936;50.820;4.336;2023-12-14T01:29:54;11.10;99.90
23520;DHT22;11936;50.820;4.336;2023-12-14T01:32:19;11.30;99.90
23520;DHT22;11936;50.820;4.336;2023-12-14T01:34:45;11.30;99.90
23520;DHT22;11936;50.820;4.336;2023-12-14T01:37:10;11.20;99.90
23520;DHT22;11936;50.820;4.336;2023-12-14T01:39:36;11.10;99.90
23520;DHT22;11936;50.820;4.336;2023-12-14T01:42:02;10.90;99.90
23520;DHT22;11936;50.820;4.336;2023-12-14T01:44:27;11.00;99.90
23520;DHT22;11936;50.820;4.336;2023-12-14T01:46:53;11.00;99.90
23520;DHT22;11936;50.820;4.336;2023-12-14T01:49:18;11.00;99.90
23520;DHT22;11936;50.820;4.336;2023-12-14T01:51:44;10.90;99.90
23520;DHT22;11936;50.820;4.336;2023-12-14T01:54:10;11.00;99.90
23520;DHT22;11936;50.820;4.336;2023-12-14T01:56:35;10.80;99.90
23520;DHT22;11936;50.820;4.336;2023-12-14T01:59:01;10.70;99.90
23520;DHT22;11936;50.820;4.336;2023-12-14T02:04:00;10.70;99.90
23520;DHT22;11936;50.820;4.336;2023-12-14T02:06:26;10.70;99.90
23520;DHT22;11936;50.820;4.336;2023-12-14T02:08:52;10.70;99.90
23520;DHT22;11936;50.820;4.336;2023-12-14T02:11:18;10.70;99.90
23520;DHT22;11936;50.820;4.336;2023-12-14T02:13:44;10.60;99.90
23520;DHT22;11936;50.820;4.336;2023-12-14T02:16:11;10.70;99.90
23520;DHT22;11936;50.820;4.336;2023-12-14T02:18:37;10.80;99.90
23520;DHT22;11936;50.820;4.336;2023-12-14T02:21:03;10.80;99.90
23520;DHT22;11936;50.820;4.336;2023-12-14T02:23:29;10.90;99.90
23520;DHT22;11936;50.820;4.336;2023-12-14T02:25:55;10.80;99.90
23520;DHT22;11936;50.820;4.336;2023-12-14T02:28:20;10.70;99.90
23520;DHT22;11936;50.820;4.336;2023-12-14T02:30:46;10.80;99.90
23520;DHT22;11936;50.820;4.336;2023-12-14T02:33:11;10.80;99.90
23520;DHT22;11936;50.820;4.336;2023-12-14T02:35:37;10.80;99.90
23520;DHT22;11936;50.820;4.336;2023-12-14T02:38:03;10.60;99.90
23520;DHT22;11936;50.820;4.336;2023-12-14T02:40:28;10.70;99.90
23520;DHT22;11936;50.820;4.336;2023-12-14T02:42:54;10.60;99.90
23520;DHT22;11936;50.820;4.336;2023-12-14T02:45:19;10.70;99.90
23520;DHT22;11936;50.820;4.336;2023-12-14T02:47:45;10.70;99.90
23520;DHT22;11936;50.820;4.336;2023-12-14T02:50:13;10.70;99.90
23520;DHT22;11936;50.820;4.336;2023-12-14T02:52:38;10.70;99.90
23520;DHT22;11936;50.820;4.336;2023-12-14T02:55:04;10.70;99.90
23520;DHT22;11936;50.820;4.336;2023-12-14T02:57:30;10.60;99.90
23520;DHT22;11936;50.820;4.336;2023-12-14T02:59:56;10.50;99.90
23520;DHT22;11936;50.820;4.336;2023-12-14T03:02:22;10.40;99.90
23520;DHT22;11936;50.820;4.336;2023-12-14T03:04:47;10.50;99.90
23520;DHT22;11936;50.820;4.336;2023-12-14T03:07:13;10.60;99.90
23520;DHT22;11936;50.820;4.336;2023-12-14T03:09:42;10.70;99.90
23520;DHT22;11936;50.820;4.336;2023-12-14T03:12:10;10.80;99.90
23520;DHT22;11936;50.820;4.336;2023-12-14T03:14:36;10.80;99.90
23520;DHT22;11936;50.820;4.336;2023-12-14T03:17:02;10.80;99.90
23520;DHT22;11936;50.820;4.336;2023-12-14T03:19:28;10.80;99.90
23520;DHT22;11936;50.820;4.336;2023-12-14T03:21:54;10.70;99.90
23520;DHT22;11936;50.820;4.336;2023-12-14T03:24:20;10.80;99.90
23520;DHT22;11936;50.820;4.336;2023-12-14T03:26:45;10.90;99.90
23520;DHT22;11936;50.820;4.336;2023-12-14T03:29:11;10.80;99.90
23520;DHT22;11936;50.820;4.336;2023-12-14T03:31:36;10.80;99.90
23520;DHT22;11936;50.820;4.336;2023-12-14T03:34:02;10.60;99.90
23520;DHT22;11936;50.820;4.336;2023-12-14T03:36:28;10.30;99.90
23520;DHT22;11936;50.820;4.336;2023-12-14T03:38:54;10.10;99.90
23520;DHT22;11936;50.820;4.336;2023-12-14T03:41:20;10.00;99.90
23520;DHT22;11936;50.820;4.336;2023-12-14T03:43:45;9.80;99.90
23520;DHT22;11936;50.820;4.336;2023-12-14T03:46:11;9.80;99.90
23520;DHT22;11936;50.820;4.336;2023-12-14T03:48:37;9.40;99.90
23520;DHT22;11936;50.820;4.336;2023-12-14T03:51:03;9.40;99.90
23520;DHT22;11936;50.820;4.336;2023-12-14T03:53:29;9.50;99.90
23520;DHT22;11936;50.820;4.336;2023-12-14T03:55:55;9.50;99.90
23520;DHT22;11936;50.820;4.336;2023-12-14T03:58:21;9.60;99.90
23520;DHT22;11936;50.820;4.336;2023-12-14T04:00:46;9.60;99.90
23520;DHT22;11936;50.820;4.336;2023-12-14T04:03:12;9.60;99.90
23520;DHT22;11936;50.820;4.336;2023-12-14T04:05:38;9.50;99.90
23520;DHT22;11936;50.820;4.336;2023-12-14T04:08:04;9.50;99.90
23520;DHT22;11936;50.820;4.336;2023-12-14T04:10:30;9.50;99.90
23520;DHT22;11936;50.820;4.336;2023-12-14T04:12:56;9.60;99.90
23520;DHT22;11936;50.820;4.336;2023-12-14T04:15:21;9.50;99.90
23520;DHT22;11936;50.820;4.336;2023-12-14T04:17:47;9.40;99.90
23520;DHT22;11936;50.820;4.336;2023-12-14T04:20:13;9.20;99.90
23520;DHT22;11936;50.820;4.336;2023-12-14T04:22:41;9.20;99.90
23520;DHT22;11936;50.820;4.336;2023-12-14T04:25:07;9.10;99.90
23520;DHT22;11936;50.820;4.336;2023-12-14T04:27:33;9.00;99.90
23520;DHT22;11936;50.820;4.336;2023-12-14T04:29:58;9.00;99.90
23520;DHT22;11936;50.820;4.336;2023-12-14T04:32:24;9.10;99.90
23520;DHT22;11936;50.820;4.336;2023-12-14T04:34:50;9.10;99.90
23520;DHT22;11936;50.820;4.336;2023-12-14T04:37:15;9.10;99.90
23520;DHT22;11936;50.820;4.336;2023-12-14T04:39:41;8.90;99.90
23520;DHT22;11936;50.820;4.336;2023-12-14T04:42:06;8.70;99.90
23520;DHT22;11936;50.820;4.336;2023-12-14T04:44:32;8.70;99.90
23520;DHT22;11936;50.820;4.336;2023-12-14T04:46:58;8.70;99.90
23520;DHT22;11936;50.820;4.336;2023-12-14T04:49:24;8.80;99.90
23520;DHT22;11936;50.820;4.336;2023-12-14T04:51:50;8.70;99.90
23520;DHT22;11936;50.820;4.336;2023-12-14T04:54:15;8.90;99.90
23520;DHT22;11936;50.820;4.336;2023-12-14T04:56:41;8.90;99.90
23520;DHT22;11936;50.820;4.336;2023-12-14T04:59:09;9.00;99.90
23520;DHT22;11936;50.820;4.336;2023-12-14T05:01:35;8.90;99.90
23520;DHT22;11936;50.820;4.336;2023-12-14T05:04:01;9.00;99.90
23520;DHT22;11936;50.820;4.336;2023-12-14T05:06:26;9.00;99.90
23520;DHT22;11936;50.820;4.336;2023-12-14T05:08:52;9.10;99.90
23520;DHT22;11936;50.820;4.336;2023-12-14T05:11:17;9.20;99.90
23520;DHT22;11936;50.820;4.336;2023-12-14T05:13:43;9.40;99.90
23520;DHT22;11936;50.820;4.336;2023-12-14T05:16:13;9.50;99.90
23520;DHT22;11936;50.820;4.336;2023-12-14T05:18:39;9.40;99.90
23520;DHT22;11936;50.820;4.336;2023-12-14T05:21:05;9.30;99.90
23520;DHT22;11936;50.820;4.336;2023-12-14T05:23:31;9.40;99.90
23520;DHT22;11936;50.820;4.336;2023-12-14T05:25:56;9.30;99.90
23520;DHT22;11936;50.820;4.336;2023-12-14T05:28:22;9.30;99.90
23520;DHT22;11936;50.820;4.336;2023-12-14T05:30:48;9.10;99.90
23520;DHT22;11936;50.820;4.336;2023-12-14T05:33:14;9.00;99.90
23520;DHT22;11936;50.820;4.336;2023-12-14T05:35:39;9.00;99.90
23520;DHT22;11936;50.820;4.336;2023-12-14T05:38:05;9.00;99.90
23520;DHT22;11936;50.820;4.336;2023-12-14T05:40:30;9.10;99.90
23520;DHT22;11936;50.820;4.336;2023-12-14T05:42:57;9.00;99.90
23520;DHT22;11936;50.820;4.336;2023-12-14T05:45:22;8.90;99.90
23520;DHT22;11936;50.820;4.336;2023-12-14T05:47:48;8.90;99.90
23520;DHT22;11936;50.820;4.336;2023-12-14T05:50:13;8.90;99.90
23520;DHT22;11936;50.820;4.336;2023-12-14T05:52:39;9.10;99.90
23520;DHT22;11936;50.820;4.336;2023-12-14T05:55:08;9.10;99.90
23520;DHT22;11936;50.820;4.336;2023-12-14T05:57:35;9.30;99.90
23520;DHT22;11936;50.820;4.336;2023-12-14T06:00:01;9.20;99.90
23520;DHT22;11936;50.820;4.336;2023-12-14T06:02:26;9.00;99.90
23520;DHT22;11936;50.820;4.336;2023-12-14T06:04:52;9.10;99.90
23520;DHT22;11936;50.820;4.336;2023-12-14T06:07:18;9.10;99.90
23520;DHT22;11936;50.820;4.336;2023-12-14T06:09:44;9.10;99.90
23520;DHT22;11936;50.820;4.336;2023-12-14T06:12:09;9.10;99.90
23520;DHT22;11936;50.820;4.336;2023-12-14T06:14:35;8.90;99.90
23520;DHT22;11936;50.820;4.336;2023-12-14T06:17:00;9.00;99.90
23520;DHT22;11936;50.820;4.336;2023-12-14T06:19:26;8.90;99.90
23520;DHT22;11936;50.820;4.336;2023-12-14T06:21:52;9.00;99.90
23520;DHT22;11936;50.820;4.336;2023-12-14T06:24:18;9.00;99.90
23520;DHT22;11936;50.820;4.336;2023-12-14T06:26:46;9.10;99.90
23520;DHT22;11936;50.820;4.336;2023-12-14T06:29:12;9.20;99.90
23520;DHT22;11936;50.820;4.336;2023-12-14T06:31:38;9.10;99.90
23520;DHT22;11936;50.820;4.336;2023-12-14T06:34:08;9.10;99.90
23520;DHT22;11936;50.820;4.336;2023-12-14T06:36:34;9.20;99.90
23520;DHT22;11936;50.820;4.336;2023-12-14T06:39:01;9.30;99.90
23520;DHT22;11936;50.820;4.336;2023-12-14T06:41:28;9.30;99.90
23520;DHT22;11936;50.820;4.336;2023-12-14T06:43:54;9.40;99.90
23520;DHT22;11936;50.820;4.336;2023-12-14T06:46:20;9.30;99.90
23520;DHT22;11936;50.820;4.336;2023-12-14T06:48:47;9.30;99.90
23520;DHT22;11936;50.820;4.336;2023-12-14T06:51:13;9.10;99.90
23520;DHT22;11936;50.820;4.336;2023-12-14T06:53:42;9.20;99.90
23520;DHT22;11936;50.820;4.336;2023-12-14T06:56:09;9.20;99.90
23520;DHT22;11936;50.820;4.336;2023-12-14T06:58:42;9.00;99.90
23520;DHT22;11936;50.820;4.336;2023-12-14T07:01:15;9.00;99.90
23520;DHT22;11936;50.820;4.336;2023-12-14T07:03:42;9.00;99.90
23520;DHT22;11936;50.820;4.336;2023-12-14T07:06:12;9.00;99.90
23520;DHT22;11936;50.820;4.336;2023-12-14T07:08:39;9.00;99.90
23520;DHT22;11936;50.820;4.336;2023-12-14T07:11:06;8.90;99.90
23520;DHT22;11936;50.820;4.336;2023-12-14T07:13:32;9.00;99.90
23520;DHT22;11936;50.820;4.336;2023-12-14T07:15:58;9.00;99.90
23520;DHT22;11936;50.820;4.336;2023-12-14T07:18:24;9.10;99.90
23520;DHT22;11936;50.820;4.336;2023-12-14T07:20:49;9.10;99.90
23520;DHT22;11936;50.820;4.336;2023-12-14T07:23:15;9.20;99.90
23520;DHT22;11936;50.820;4.336;2023-12-14T07:25:41;9.30;99.90
23520;DHT22;11936;50.820;4.336;2023-12-14T07:28:06;9.20;99.90
23520;DHT22;11936;50.820;4.336;2023-12-14T07:30:32;9.20;99.90
23520;DHT22;11936;50.820;4.336;2023-12-14T07:32:57;9.20;99.90
23520;DHT22;11936;50.820;4.336;2023-12-14T07:35:23;9.20;99.90
23520;DHT22;11936;50.820;4.336;2023-12-14T07:37:49;9.30;99.90
23520;DHT22;11936;50.820;4.336;2023-12-14T07:40:14;9.30;99.90
23520;DHT22;11936;50.820;4.336;2023-12-14T07:42:40;9.20;99.90
23520;DHT22;11936;50.820;4.336;2023-12-14T07:45:06;9.30;99.90
23520;DHT22;11936;50.820;4.336;2023-12-14T07:47:34;9.30;99.90
23520;DHT22;11936;50.820;4.336;2023-12-14T07:49:59;9.30;99.90
23520;DHT22;11936;50.820;4.336;2023-12-14T07:52:25;9.40;99.90
23520;DHT22;11936;50.820;4.336;2023-12-14T07:54:50;9.40;99.90
23520;DHT22;11936;50.820;4.336;2023-12-14T07:57:16;9.40;99.90
23520;DHT22;11936;50.820;4.336;2023-12-14T07:59:42;9.40;99.90
23520;DHT22;11936;50.820;4.336;2023-12-14T08:02:08;9.50;99.90
23520;DHT22;11936;50.820;4.336;2023-12-14T08:04:34;9.60;99.90
23520;DHT22;11936;50.820;4.336;2023-12-14T08:06:59;9.50;99.90
23520;DHT22;11936;50.820;4.336;2023-12-14T08:09:27;9.30;99.90
23520;DHT22;11936;50.820;4.336;2023-12-14T08:11:53;9.40;99.90
23520;DHT22;11936;50.820;4.336;2023-12-14T08:14:18;9.40;99.90
23520;DHT22;11936;50.820;4.336;2023-12-14T08:16:44;9.60;99.90
23520;DHT22;11936;50.820;4.336;2023-12-14T08:19:09;9.70;99.90
23520;DHT22;11936;50.820;4.336;2023-12-14T08:21:35;9.60;99.90
23520;DHT22;11936;50.820;4.336;2023-12-14T08:24:00;9.80;99.90
23520;DHT22;11936;50.820;4.336;2023-12-14T08:26:26;9.90;99.90
23520;DHT22;11936;50.820;4.336;2023-12-14T08:28:52;9.70;99.90
23520;DHT22;11936;50.820;4.336;2023-12-14T08:31:17;9.60;99.90
23520;DHT22;11936;50.820;4.336;2023-12-14T08:33:43;9.60;99.90
23520;DHT22;11936;50.820;4.336;2023-12-14T08:36:09;9.70;99.90
23520;DHT22;11936;50.820;4.336;2023-12-14T08:38:34;9.80;99.90
23520;DHT22;11936;50.820;4.336;2023-12-14T08:41:00;9.80;99.90
23520;DHT22;11936;50.820;4.336;2023-12-14T08:43:26;9.70;99.90
23520;DHT22;11936;50.820;4.336;2023-12-14T08:45:52;9.70;99.90
23520;DHT22;11936;50.820;4.336;2023-12-14T08:48:18;9.70;99.90
23520;DHT22;11936;50.820;4.336;2023-12-14T08:50:44;9.90;99.90
23520;DHT22;11936;50.820;4.336;2023-12-14T08:53:10;9.90;99.90
23520;DHT22;11936;50.820;4.336;2023-12-14T08:55:36;9.80;99.90
23520;DHT22;11936;50.820;4.336;2023-12-14T08:58:02;9.70;99.90
23520;DHT22;11936;50.820;4.336;2023-12-14T09:00:27;9.60;99.90
23520;DHT22;11936;50.820;4.336;2023-12-14T09:02:53;9.60;99.90
23520;DHT22;11936;50.820;4.336;2023-12-14T09:05:19;9.60;99.90
23520;DHT22;11936;50.820;4.336;2023-12-14T09:07:46;9.70;99.90
23520;DHT22;11936;50.820;4.336;2023-12-14T09:10:12;9.70;99.90
23520;DHT22;11936;50.820;4.336;2023-12-14T09:12:38;9.60;99.90
23520;DHT22;11936;50.820;4.336;2023-12-14T09:15:04;9.70;99.90
23520;DHT22;11936;50.820;4.336;2023-12-14T09:17:32;9.70;99.90
23520;DHT22;11936;50.820;4.336;2023-12-14T09:19:59;9.80;99.90
23520;DHT22;11936;50.820;4.336;2023-12-14T09:22:25;9.70;99.90
23520;DHT22;11936;50.820;4.336;2023-12-14T09:24:51;9.60;99.90
23520;DHT22;11936;50.820;4.336;2023-12-14T09:27:17;9.60;99.90
23520;DHT22;11936;50.820;4.336;2023-12-14T09:29:42;9.60;99.90
23520;DHT22;11936;50.820;4.336;2023-12-14T09:32:08;9.70;99.90
23520;DHT22;11936;50.820;4.336;2023-12-14T09:34:34;9.80;99.90
23520;DHT22;11936;50.820;4.336;2023-12-14T09:37:00;9.80;99.90
23520;DHT22;11936;50.820;4.336;2023-12-14T09:39:25;9.80;99.90
23520;DHT22;11936;50.820;4.336;2023-12-14T09:42:03;9.80;99.90
23520;DHT22;11936;50.820;4.336;2023-12-14T09:44:30;10.00;99.90
23520;DHT22;11936;50.820;4.336;2023-12-14T09:46:58;10.00;99.90
23520;DHT22;11936;50.820;4.336;2023-12-14T09:49:26;10.00;99.90
23520;DHT22;11936;50.820;4.336;2023-12-14T09:51:55;9.90;99.90
23520;DHT22;11936;50.820;4.336;2023-12-14T09:54:20;9.90;99.90
23520;DHT22;11936;50.820;4.336;2023-12-14T09:56:47;9.80;99.90
23520;DHT22;11936;50.820;4.336;2023-12-14T09:59:13;10.00;99.90
23520;DHT22;11936;50.820;4.336;2023-12-14T10:01:39;9.90;99.90
23520;DHT22;11936;50.820;4.336;2023-12-14T10:04:09;9.90;99.90
23520;DHT22;11936;50.820;4.336;2023-12-14T10:06:35;10.00;99.90
23520;DHT22;11936;50.820;4.336;2023-12-14T10:09:01;10.00;99.90
23520;DHT22;11936;50.820;4.336;2023-12-14T10:11:27;10.00;99.90
23520;DHT22;11936;50.820;4.336;2023-12-14T10:13:52;10.10;99.90
23520;DHT22;11936;50.820;4.336;2023-12-14T10:16:28;10.00;99.90
23520;DHT22;11936;50.820;4.336;2023-12-14T10:18:56;10.00;99.90
23520;DHT22;11936;50.820;4.336;2023-12-14T10:21:23;10.10;99.90
23520;DHT22;11936;50.820;4.336;2023-12-14T10:23:49;10.00;99.90
23520;DHT22;11936;50.820;4.336;2023-12-14T10:26:15;10.10;99.90
23520;DHT22;11936;50.820;4.336;2023-12-14T10:28:40;10.10;99.90
23520;DHT22;11936;50.820;4.336;2023-12-14T10:31:07;10.10;99.90
23520;DHT22;11936;50.820;4.336;2023-12-14T10:33:33;10.00;99.90
23520;DHT22;11936;50.820;4.336;2023-12-14T10:36:00;9.90;99.90
23520;DHT22;11936;50.820;4.336;2023-12-14T10:38:28;10.00;99.90
23520;DHT22;11936;50.820;4.336;2023-12-14T10:40:55;10.00;99.90
23520;DHT22;11936;50.820;4.336;2023-12-14T10:43:22;10.10;99.90
23520;DHT22;11936;50.820;4.336;2023-12-14T10:45:48;10.10;99.90
23520;DHT22;11936;50.820;4.336;2023-12-14T10:48:13;10.20;99.90
23520;DHT22;11936;50.820;4.336;2023-12-14T10:50:42;10.20;99.90
23520;DHT22;11936;50.820;4.336;2023-12-14T10:53:08;10.20;99.90
23520;DHT22;11936;50.820;4.336;2023-12-14T10:55:41;10.30;99.90
23520;DHT22;11936;50.820;4.336;2023-12-14T10:58:08;10.40;99.90
23520;DHT22;11936;50.820;4.336;2023-12-14T11:00:35;10.50;99.90
23520;DHT22;11936;50.820;4.336;2023-12-14T11:03:04;10.40;99.90
23520;DHT22;11936;50.820;4.336;2023-12-14T11:05:32;10.20;99.90
23520;DHT22;11936;50.820;4.336;2023-12-14T11:08:04;10.20;99.90
23520;DHT22;11936;50.820;4.336;2023-12-14T11:10:42;10.20;99.90
23520;DHT22;11936;50.820;4.336;2023-12-14T11:13:11;10.30;99.90
23520;DHT22;11936;50.820;4.336;2023-12-14T11:15:39;10.30;99.90
23520;DHT22;11936;50.820;4.336;2023-12-14T11:23:37;10.20;99.90
23520;DHT22;11936;50.820;4.336;2023-12-14T11:26:06;10.10;99.90
23520;DHT22;11936;50.820;4.336;2023-12-14T11:28:39;10.30;99.90
23520;DHT22;11936;50.820;4.336;2023-12-14T11:31:10;10.30;99.90
23520;DHT22;11936;50.820;4.336;2023-12-14T11:33:36;10.10;99.90
23520;DHT22;11936;50.820;4.336;2023-12-14T11:36:02;10.00;99.90
23520;DHT22;11936;50.820;4.336;2023-12-14T11:38:31;10.20;99.90
23520;DHT22;11936;50.820;4.336;2023-12-14T11:40:58;10.10;99.90
23520;DHT22;11936;50.820;4.336;2023-12-14T11:43:24;10.10;99.90
23520;DHT22;11936;50.820;4.336;2023-12-14T11:45:52;10.10;99.90
23520;DHT22;11936;50.820;4.336;2023-12-14T11:48:18;10.10;99.90
23520;DHT22;11936;50.820;4.336;2023-12-14T11:50:46;10.10;99.90
23520;DHT22;11936;50.820;4.336;2023-12-14T11:53:14;10.10;99.90
23520;DHT22;11936;50.820;4.336;2023-12-14T11:55:41;10.20;99.90
23520;DHT22;11936;50.820;4.336;2023-12-14T11:58:08;10.00;99.90
23520;DHT22;11936;50.820;4.336;2023-12-14T12:00:34;10.00;99.90
23520;DHT22;11936;50.820;4.336;2023-12-14T12:03:13;10.00;99.90
23520;DHT22;11936;50.820;4.336;2023-12-14T12:05:50;10.10;99.90
23520;DHT22;11936;50.820;4.336;2023-12-14T12:08:18;10.10;99.90
23520;DHT22;11936;50.820;4.336;2023-12-14T12:10:44;10.20;99.90
23520;DHT22;11936;50.820;4.336;2023-12-14T12:13:15;9.80;99.90
23520;DHT22;11936;50.820;4.336;2023-12-14T12:15:41;9.80;99.90
23520;DHT22;11936;50.820;4.336;2023-12-14T12:18:09;9.90;99.90
23520;DHT22;11936;50.820;4.336;2023-12-14T12:20:35;10.00;99.90
23520;DHT22;11936;50.820;4.336;2023-12-14T12:23:01;10.00;99.90
23520;DHT22;11936;50.820;4.336;2023-12-14T12:25:27;9.90;99.90
23520;DHT22;11936;50.820;4.336;2023-12-14T12:27:57;10.10;99.90
23520;DHT22;11936;50.820;4.336;2023-12-14T12:30:22;9.90;99.90
23520;DHT22;11936;50.820;4.336;2023-12-14T12:32:49;10.00;99.90
23520;DHT22;11936;50.820;4.336;2023-12-14T12:35:20;9.90;99.90
23520;DHT22;11936;50.820;4.336;2023-12-14T12:37:45;9.90;99.90
23520;DHT22;11936;50.820;4.336;2023-12-14T12:40:12;9.80;99.90
23520;DHT22;11936;50.820;4.336;2023-12-14T12:42:38;9.80;99.90
23520;DHT22;11936;50.820;4.336;2023-12-14T12:45:05;9.90;99.90
23520;DHT22;11936;50.820;4.336;2023-12-14T12:47:31;9.90;99.90
23520;DHT22;11936;50.820;4.336;2023-12-14T12:49:57;10.00;99.90
23520;DHT22;11936;50.820;4.336;2023-12-14T12:52:22;9.90;99.90
23520;DHT22;11936;50.820;4.336;2023-12-14T12:54:48;9.90;99.90
23520;DHT22;11936;50.820;4.336;2023-12-14T12:57:13;9.90;99.90
23520;DHT22;11936;50.820;4.336;2023-12-14T12:59:39;9.40;99.90
23520;DHT22;11936;50.820;4.336;2023-12-14T13:02:05;9.40;99.90
23520;DHT22;11936;50.820;4.336;2023-12-14T13:04:34;9.50;99.90
23520;DHT22;11936;50.820;4.336;2023-12-14T13:06:59;9.30;99.90
23520;DHT22;11936;50.820;4.336;2023-12-14T13:09:29;9.50;99.90
23520;DHT22;11936;50.820;4.336;2023-12-14T13:11:54;9.60;99.90
23520;DHT22;11936;50.820;4.336;2023-12-14T13:14:20;9.60;99.90
23520;DHT22;11936;50.820;4.336;2023-12-14T13:16:47;9.70;99.90
23520;DHT22;11936;50.820;4.336;2023-12-14T13:19:13;9.80;99.90
23520;DHT22;11936;50.820;4.336;2023-12-14T13:21:39;9.80;99.90
23520;DHT22;11936;50.820;4.336;2023-12-14T13:24:05;9.90;99.90
23520;DHT22;11936;50.820;4.336;2023-12-14T13:26:30;9.90;99.90
23520;DHT22;11936;50.820;4.336;2023-12-14T13:28:56;10.00;99.90
23520;DHT22;11936;50.820;4.336;2023-12-14T13:31:21;10.00;99.90
23520;DHT22;11936;50.820;4.336;2023-12-14T13:33:48;10.00;99.90
23520;DHT22;11936;50.820;4.336;2023-12-14T13:36:14;10.10;99.90
23520;DHT22;11936;50.820;4.336;2023-12-14T13:38:41;10.10;99.90
23520;DHT22;11936;50.820;4.336;2023-12-14T13:41:07;10.20;99.90
23520;DHT22;11936;50.820;4.336;2023-12-14T13:43:33;10.20;99.90
23520;DHT22;11936;50.820;4.336;2023-12-14T13:45:59;10.30;99.90
23520;DHT22;11936;50.820;4.336;2023-12-14T13:48:25;10.30;99.90
23520;DHT22;11936;50.820;4.336;2023-12-14T13:50:52;10.30;99.90
23520;DHT22;11936;50.820;4.336;2023-12-14T13:53:18;10.20;99.90
23520;DHT22;11936;50.820;4.336;2023-12-14T13:55:44;10.20;99.90
23520;DHT22;11936;50.820;4.336;2023-12-14T13:58:10;10.10;99.90
23520;DHT22;11936;50.820;4.336;2023-12-14T14:00:36;10.20;99.90
23520;DHT22;11936;50.820;4.336;2023-12-14T14:03:02;10.30;99.90
23520;DHT22;11936;50.820;4.336;2023-12-14T14:05:29;10.10;99.90
23520;DHT22;11936;50.820;4.336;2023-12-14T14:07:55;10.10;99.90
23520;DHT22;11936;50.820;4.336;2023-12-14T14:10:21;10.10;99.90
23520;DHT22;11936;50.820;4.336;2023-12-14T14:12:47;10.30;99.90
23520;DHT22;11936;50.820;4.336;2023-12-14T14:15:12;10.30;99.90
23520;DHT22;11936;50.820;4.336;2023-12-14T14:17:38;10.30;99.90
23520;DHT22;11936;50.820;4.336;2023-12-14T14:20:04;10.20;99.90
23520;DHT22;11936;50.820;4.336;2023-12-14T14:22:30;10.10;99.90
23520;DHT22;11936;50.820;4.336;2023-12-14T14:24:56;10.20;99.90
23520;DHT22;11936;50.820;4.336;2023-12-14T14:27:22;10.20;99.90
23520;DHT22;11936;50.820;4.336;2023-12-14T14:29:48;10.20;99.90
23520;DHT22;11936;50.820;4.336;2023-12-14T14:32:14;10.30;99.90
23520;DHT22;11936;50.820;4.336;2023-12-14T14:34:40;10.40;99.90
23520;DHT22;11936;50.820;4.336;2023-12-14T14:37:06;10.40;99.90
23520;DHT22;11936;50.820;4.336;2023-12-14T14:39:31;10.40;99.90
23520;DHT22;11936;50.820;4.336;2023-12-14T14:41:57;10.40;99.90
23520;DHT22;11936;50.820;4.336;2023-12-14T14:44:24;10.40;99.90
23520;DHT22;11936;50.820;4.336;2023-12-14T14:46:50;10.40;99.90
23520;DHT22;11936;50.820;4.336;2023-12-14T14:49:17;10.50;99.90
23520;DHT22;11936;50.820;4.336;2023-12-14T14:51:43;10.30;99.90
23520;DHT22;11936;50.820;4.336;2023-12-14T14:54:08;10.20;99.90
23520;DHT22;11936;50.820;4.336;2023-12-14T14:56:34;10.30;99.90
23520;DHT22;11936;50.820;4.336;2023-12-14T14:59:00;10.40;99.90
23520;DHT22;11936;50.820;4.336;2023-12-14T15:01:25;10.30;99.90
23520;DHT22;11936;50.820;4.336;2023-12-14T15:03:51;10.40;99.90
23520;DHT22;11936;50.820;4.336;2023-12-14T15:06:16;10.30;99.90
23520;DHT22;11936;50.820;4.336;2023-12-14T15:08:42;10.40;99.90
23520;DHT22;11936;50.820;4.336;2023-12-14T15:11:07;10.30;99.90
23520;DHT22;11936;50.820;4.336;2023-12-14T15:13:35;10.20;99.90
23520;DHT22;11936;50.820;4.336;2023-12-14T15:16:01;10.20;99.90
23520;DHT22;11936;50.820;4.336;2023-12-14T15:18:26;10.10;99.90
23520;DHT22;11936;50.820;4.336;2023-12-14T15:20:52;10.10;99.90
23520;DHT22;11936;50.820;4.336;2023-12-14T15:23:18;10.20;99.90
23520;DHT22;11936;50.820;4.336;2023-12-14T15:25:44;10.10;99.90
23520;DHT22;11936;50.820;4.336;2023-12-14T15:28:10;10.20;99.90
23520;DHT22;11936;50.820;4.336;2023-12-14T15:30:35;10.10;99.90
23520;DHT22;11936;50.820;4.336;2023-12-14T15:33:01;10.10;99.90
23520;DHT22;11936;50.820;4.336;2023-12-14T15:35:27;10.10;99.90
23520;DHT22;11936;50.820;4.336;2023-12-14T15:37:54;10.10;99.90
23520;DHT22;11936;50.820;4.336;2023-12-14T15:40:19;10.10;99.90